Decoded Metar for WMKP (PENANG in MALAYSIA) (IATA:PEN) | Meteo·Mobile Aviation Weather
aviador You're here:

WMKP Decoded Metar

PENANG in MALAYSIA
Report Time2019-06-19 01:00:00
UTC Time2019-06-19 01:13:41
Flight Rules mvfr MVFR
WindCalm
Visibility7000 m
Phenomena:N/A
Clouds:Few 020 Hf
Broken 140 Hf
Broken 270 Hf
Expected CloudBase > 1,200 ft AGL from Temp-Dew spread
Ceiling14,000 ft
Temp29°C (ISA +14)
Dew Point26°C (84% RH)
Heat Index35.6°C
QNH1009 hPa
Density Alt2,198 ft
Elevation13 ft
Report Wrong Elevation
Raw Report
METAR WMKP 190100Z 00000KT 7000 FEW020 BKN140 BKN270 29/26 Q1009
NOSIG=

Extra information for WMKP:More info

Metar Taf Metar & Taf Last 4 Metars F.Rules Stats Wind Profile Meteogram Temp Stats Airport Information Weather charts Add Link Nearby VenuesMetar ALERT Operation Metar Decoded Social comments